sensor_id;sensor_type;location;lat;lon;timestamp;temperature;humidity
814;DHT22;389;48.710;9.392;2023-10-19T00:01:53;12.30;99.90
814;DHT22;389;48.710;9.392;2023-10-19T00:04:19;12.30;99.90
814;DHT22;389;48.710;9.392;2023-10-19T00:06:47;12.30;99.90
814;DHT22;389;48.710;9.392;2023-10-19T00:09:14;12.30;99.90
814;DHT22;389;48.710;9.392;2023-10-19T00:11:40;12.30;99.90
814;DHT22;389;48.710;9.392;2023-10-19T00:14:06;12.40;99.90
814;DHT22;389;48.710;9.392;2023-10-19T00:16:42;12.40;99.90
814;DHT22;389;48.710;9.392;2023-10-19T00:19:10;12.40;99.90
814;DHT22;389;48.710;9.392;2023-10-19T00:21:36;12.40;99.90
814;DHT22;389;48.710;9.392;2023-10-19T00:24:19;12.30;99.90
814;DHT22;389;48.710;9.392;2023-10-19T00:26:47;12.30;99.90
814;DHT22;389;48.710;9.392;2023-10-19T00:29:20;12.50;99.90
814;DHT22;389;48.710;9.392;2023-10-19T00:32:11;12.40;99.90
814;DHT22;389;48.710;9.392;2023-10-19T00:34:39;12.40;99.90
814;DHT22;389;48.710;9.392;2023-10-19T00:37:06;12.30;99.90
814;DHT22;389;48.710;9.392;2023-10-19T00:39:36;12.40;99.90
814;DHT22;389;48.710;9.392;2023-10-19T00:42:09;12.40;99.90
814;DHT22;389;48.710;9.392;2023-10-19T00:44:34;12.40;99.90
814;DHT22;389;48.710;9.392;2023-10-19T00:47:08;12.40;99.90
814;DHT22;389;48.710;9.392;2023-10-19T00:49:38;12.30;99.90
814;DHT22;389;48.710;9.392;2023-10-19T00:52:06;12.30;99.90
814;DHT22;389;48.710;9.392;2023-10-19T00:54:46;12.40;99.90
814;DHT22;389;48.710;9.392;2023-10-19T00:57:16;12.50;99.90
814;DHT22;389;48.710;9.392;2023-10-19T00:59:47;12.30;99.90
814;DHT22;389;48.710;9.392;2023-10-19T01:02:20;12.40;99.90
814;DHT22;389;48.710;9.392;2023-10-19T01:04:52;12.30;99.90
814;DHT22;389;48.710;9.392;2023-10-19T01:07:27;12.30;99.90
814;DHT22;389;48.710;9.392;2023-10-19T01:09:58;12.40;99.90
814;DHT22;389;48.710;9.392;2023-10-19T01:12:24;12.40;99.90
814;DHT22;389;48.710;9.392;2023-10-19T01:15:24;12.40;99.90
814;DHT22;389;48.710;9.392;2023-10-19T01:17:56;12.40;99.90
814;DHT22;389;48.710;9.392;2023-10-19T01:20:29;12.40;99.90
814;DHT22;389;48.710;9.392;2023-10-19T01:22:56;12.60;99.90
814;DHT22;389;48.710;9.392;2023-10-19T01:28:25;12.40;99.90
814;DHT22;389;48.710;9.392;2023-10-19T01:30:54;12.50;99.90
814;DHT22;389;48.710;9.392;2023-10-19T01:33:21;12.60;99.90
814;DHT22;389;48.710;9.392;2023-10-19T01:35:48;12.50;99.90
814;DHT22;389;48.710;9.392;2023-10-19T01:38:32;12.60;99.90
814;DHT22;389;48.710;9.392;2023-10-19T01:40:59;12.50;99.90
814;DHT22;389;48.710;9.392;2023-10-19T01:43:26;12.50;99.90
814;DHT22;389;48.710;9.392;2023-10-19T01:45:56;12.50;99.90
814;DHT22;389;48.710;9.392;2023-10-19T01:48:21;12.60;99.90
814;DHT22;389;48.710;9.392;2023-10-19T01:51:13;12.60;99.90
814;DHT22;389;48.710;9.392;2023-10-19T01:53:41;12.50;99.90
814;DHT22;389;48.710;9.392;2023-10-19T01:56:11;12.50;99.90
814;DHT22;389;48.710;9.392;2023-10-19T01:58:38;12.60;99.90
814;DHT22;389;48.710;9.392;2023-10-19T02:01:05;12.60;99.90
814;DHT22;389;48.710;9.392;2023-10-19T02:03:44;12.80;99.90
814;DHT22;389;48.710;9.392;2023-10-19T02:06:12;12.70;99.90
814;DHT22;389;48.710;9.392;2023-10-19T02:08:49;12.70;99.90
814;DHT22;389;48.710;9.392;2023-10-19T02:11:25;12.70;99.90
814;DHT22;389;48.710;9.392;2023-10-19T02:13:53;12.70;99.90
814;DHT22;389;48.710;9.392;2023-10-19T02:16:20;12.80;99.90
814;DHT22;389;48.710;9.392;2023-10-19T02:18:50;12.90;99.90
814;DHT22;389;48.710;9.392;2023-10-19T02:21:16;12.90;99.90
814;DHT22;389;48.710;9.392;2023-10-19T02:23:48;13.00;99.90
814;DHT22;389;48.710;9.392;2023-10-19T02:26:16;12.90;99.90
814;DHT22;389;48.710;9.392;2023-10-19T02:28:42;12.80;99.90
814;DHT22;389;48.710;9.392;2023-10-19T02:31:09;13.00;99.90
814;DHT22;389;48.710;9.392;2023-10-19T02:33:44;13.10;99.90
814;DHT22;389;48.710;9.392;2023-10-19T02:36:17;12.90;99.90
814;DHT22;389;48.710;9.392;2023-10-19T02:38:45;12.90;99.90
814;DHT22;389;48.710;9.392;2023-10-19T02:41:15;12.90;99.90
814;DHT22;389;48.710;9.392;2023-10-19T02:43:41;13.00;99.90
814;DHT22;389;48.710;9.392;2023-10-19T02:46:11;12.80;99.90
814;DHT22;389;48.710;9.392;2023-10-19T02:48:39;12.90;99.90
814;DHT22;389;48.710;9.392;2023-10-19T02:51:10;12.70;99.90
814;DHT22;389;48.710;9.392;2023-10-19T02:53:39;12.90;99.90
814;DHT22;389;48.710;9.392;2023-10-19T02:56:15;12.80;99.90
814;DHT22;389;48.710;9.392;2023-10-19T02:58:45;12.70;99.90
814;DHT22;389;48.710;9.392;2023-10-19T03:01:20;12.80;99.90
814;DHT22;389;48.710;9.392;2023-10-19T03:03:54;12.70;99.90
814;DHT22;389;48.710;9.392;2023-10-19T03:06:23;12.70;99.90
814;DHT22;389;48.710;9.392;2023-10-19T03:08:50;12.80;99.90
814;DHT22;389;48.710;9.392;2023-10-19T03:11:30;12.70;99.90
814;DHT22;389;48.710;9.392;2023-10-19T03:13:58;12.60;99.90
814;DHT22;389;48.710;9.392;2023-10-19T03:16:24;12.50;99.90
814;DHT22;389;48.710;9.392;2023-10-19T03:18:50;12.50;99.90
814;DHT22;389;48.710;9.392;2023-10-19T03:21:19;12.40;99.90
814;DHT22;389;48.710;9.392;2023-10-19T03:23:49;12.30;99.90
814;DHT22;389;48.710;9.392;2023-10-19T03:26:15;12.30;99.90
814;DHT22;389;48.710;9.392;2023-10-19T03:28:50;12.20;99.90
814;DHT22;389;48.710;9.392;2023-10-19T03:31:21;12.20;99.90
814;DHT22;389;48.710;9.392;2023-10-19T03:33:48;12.00;99.90
814;DHT22;389;48.710;9.392;2023-10-19T03:36:20;12.00;99.90
814;DHT22;389;48.710;9.392;2023-10-19T03:38:46;11.90;99.90
814;DHT22;389;48.710;9.392;2023-10-19T03:41:12;11.90;99.90
814;DHT22;389;48.710;9.392;2023-10-19T03:43:37;11.80;99.90
814;DHT22;389;48.710;9.392;2023-10-19T03:46:06;11.70;99.90
814;DHT22;389;48.710;9.392;2023-10-19T03:48:52;11.60;99.90
814;DHT22;389;48.710;9.392;2023-10-19T03:51:18;11.60;99.90
814;DHT22;389;48.710;9.392;2023-10-19T03:53:44;11.60;99.90
814;DHT22;389;48.710;9.392;2023-10-19T03:56:19;11.50;99.90
814;DHT22;389;48.710;9.392;2023-10-19T03:58:44;11.50;99.90
814;DHT22;389;48.710;9.392;2023-10-19T04:01:12;11.40;99.90
814;DHT22;389;48.710;9.392;2023-10-19T04:03:42;11.40;99.90
814;DHT22;389;48.710;9.392;2023-10-19T04:06:09;11.30;99.90
814;DHT22;389;48.710;9.392;2023-10-19T04:08:39;11.30;99.90
814;DHT22;389;48.710;9.392;2023-10-19T04:11:05;11.30;99.90
814;DHT22;389;48.710;9.392;2023-10-19T04:13:34;11.20;99.90
814;DHT22;389;48.710;9.392;2023-10-19T04:16:01;11.20;99.90
814;DHT22;389;48.710;9.392;2023-10-19T04:18:26;11.10;99.90
814;DHT22;389;48.710;9.392;2023-10-19T04:20:52;11.00;99.90
814;DHT22;389;48.710;9.392;2023-10-19T04:23:18;11.00;99.90
814;DHT22;389;48.710;9.392;2023-10-19T04:25:46;10.90;99.90
814;DHT22;389;48.710;9.392;2023-10-19T04:28:11;10.90;99.90
814;DHT22;389;48.710;9.392;2023-10-19T04:30:40;10.80;99.90
814;DHT22;389;48.710;9.392;2023-10-19T04:33:05;10.80;99.90
814;DHT22;389;48.710;9.392;2023-10-19T04:35:36;10.80;99.90
814;DHT22;389;48.710;9.392;2023-10-19T04:38:04;10.70;99.90
814;DHT22;389;48.710;9.392;2023-10-19T04:40:32;10.70;99.90
814;DHT22;389;48.710;9.392;2023-10-19T04:43:01;10.70;99.90
814;DHT22;389;48.710;9.392;2023-10-19T04:45:27;10.60;99.90
814;DHT22;389;48.710;9.392;2023-10-19T04:47:53;10.60;99.90
814;DHT22;389;48.710;9.392;2023-10-19T04:50:18;10.60;99.90
814;DHT22;389;48.710;9.392;2023-10-19T04:52:44;10.60;99.90
814;DHT22;389;48.710;9.392;2023-10-19T04:55:10;10.60;99.90
814;DHT22;389;48.710;9.392;2023-10-19T04:57:35;10.60;99.90
814;DHT22;389;48.710;9.392;2023-10-19T05:00:01;10.60;99.90
814;DHT22;389;48.710;9.392;2023-10-19T05:02:27;10.60;99.90
814;DHT22;389;48.710;9.392;2023-10-19T05:04:53;10.60;99.90
814;DHT22;389;48.710;9.392;2023-10-19T05:07:19;10.60;99.90
814;DHT22;389;48.710;9.392;2023-10-19T05:09:45;10.60;99.90
814;DHT22;389;48.710;9.392;2023-10-19T05:12:11;10.60;99.90
814;DHT22;389;48.710;9.392;2023-10-19T05:14:37;10.60;99.90
814;DHT22;389;48.710;9.392;2023-10-19T05:17:03;10.60;99.90
814;DHT22;389;48.710;9.392;2023-10-19T05:19:32;10.60;99.90
814;DHT22;389;48.710;9.392;2023-10-19T05:22:00;10.70;99.90
814;DHT22;389;48.710;9.392;2023-10-19T05:24:26;10.70;99.90
814;DHT22;389;48.710;9.392;2023-10-19T05:26:53;10.70;99.90
814;DHT22;389;48.710;9.392;2023-10-19T05:29:19;10.70;99.90
814;DHT22;389;48.710;9.392;2023-10-19T05:31:45;10.70;99.90
814;DHT22;389;48.710;9.392;2023-10-19T05:34:11;10.70;99.90
814;DHT22;389;48.710;9.392;2023-10-19T05:36:36;10.70;99.90
814;DHT22;389;48.710;9.392;2023-10-19T05:39:02;10.80;99.90
814;DHT22;389;48.710;9.392;2023-10-19T05:41:29;10.80;99.90
814;DHT22;389;48.710;9.392;2023-10-19T05:43:56;10.80;99.90
814;DHT22;389;48.710;9.392;2023-10-19T05:46:22;10.80;99.90
814;DHT22;389;48.710;9.392;2023-10-19T05:48:50;10.90;99.90
814;DHT22;389;48.710;9.392;2023-10-19T05:51:16;10.80;99.90
814;DHT22;389;48.710;9.392;2023-10-19T05:53:42;10.80;99.90
814;DHT22;389;48.710;9.392;2023-10-19T05:56:10;10.80;99.90
814;DHT22;389;48.710;9.392;2023-10-19T05:58:36;10.80;99.90
814;DHT22;389;48.710;9.392;2023-10-19T06:01:01;10.80;99.90
814;DHT22;389;48.710;9.392;2023-10-19T06:03:28;10.90;99.90
814;DHT22;389;48.710;9.392;2023-10-19T06:05:53;10.90;99.90
814;DHT22;389;48.710;9.392;2023-10-19T06:08:22;10.90;99.90
814;DHT22;389;48.710;9.392;2023-10-19T06:10:51;11.00;99.90
814;DHT22;389;48.710;9.392;2023-10-19T06:13:17;11.10;99.90
814;DHT22;389;48.710;9.392;2023-10-19T06:15:43;11.10;99.90
814;DHT22;389;48.710;9.392;2023-10-19T06:18:09;11.20;99.90
814;DHT22;389;48.710;9.392;2023-10-19T06:20:36;11.20;99.90
814;DHT22;389;48.710;9.392;2023-10-19T06:23:02;11.30;99.90
814;DHT22;389;48.710;9.392;2023-10-19T06:25:32;11.30;99.90
814;DHT22;389;48.710;9.392;2023-10-19T06:27:58;11.30;99.90
814;DHT22;389;48.710;9.392;2023-10-19T06:30:25;11.40;99.90
814;DHT22;389;48.710;9.392;2023-10-19T06:32:53;11.50;99.90
814;DHT22;389;48.710;9.392;2023-10-19T06:35:20;11.60;99.90
814;DHT22;389;48.710;9.392;2023-10-19T06:37:46;11.70;99.90
814;DHT22;389;48.710;9.392;2023-10-19T06:40:14;11.70;99.90
814;DHT22;389;48.710;9.392;2023-10-19T06:42:46;11.80;99.90
814;DHT22;389;48.710;9.392;2023-10-19T06:45:13;11.80;99.90
814;DHT22;389;48.710;9.392;2023-10-19T06:47:43;11.90;99.90
814;DHT22;389;48.710;9.392;2023-10-19T06:50:11;12.00;99.90
814;DHT22;389;48.710;9.392;2023-10-19T06:52:39;12.00;99.90
814;DHT22;389;48.710;9.392;2023-10-19T06:55:06;12.10;99.90
814;DHT22;389;48.710;9.392;2023-10-19T06:57:45;12.10;99.90
814;DHT22;389;48.710;9.392;2023-10-19T07:00:15;12.20;99.90
814;DHT22;389;48.710;9.392;2023-10-19T07:02:51;12.20;99.90
814;DHT22;389;48.710;9.392;2023-10-19T07:05:18;12.30;99.90
814;DHT22;389;48.710;9.392;2023-10-19T07:07:46;12.30;99.90
814;DHT22;389;48.710;9.392;2023-10-19T07:10:13;12.40;99.90
814;DHT22;389;48.710;9.392;2023-10-19T07:12:43;12.40;99.90
814;DHT22;389;48.710;9.392;2023-10-19T07:15:10;12.40;99.90
814;DHT22;389;48.710;9.392;2023-10-19T07:17:48;12.40;99.90
814;DHT22;389;48.710;9.392;2023-10-19T07:20:15;12.50;99.90
814;DHT22;389;48.710;9.392;2023-10-19T07:23:02;12.50;99.90
814;DHT22;389;48.710;9.392;2023-10-19T07:25:50;12.50;99.90
814;DHT22;389;48.710;9.392;2023-10-19T07:28:25;12.60;99.90
814;DHT22;389;48.710;9.392;2023-10-19T07:30:55;12.60;99.90
814;DHT22;389;48.710;9.392;2023-10-19T07:33:21;12.70;99.90
814;DHT22;389;48.710;9.392;2023-10-19T07:35:49;12.70;99.90
814;DHT22;389;48.710;9.392;2023-10-19T07:38:21;12.70;99.90
814;DHT22;389;48.710;9.392;2023-10-19T07:40:48;12.70;99.90
814;DHT22;389;48.710;9.392;2023-10-19T07:43:14;12.70;99.90
814;DHT22;389;48.710;9.392;2023-10-19T07:45:39;12.90;99.90
814;DHT22;389;48.710;9.392;2023-10-19T07:48:05;12.90;99.90
814;DHT22;389;48.710;9.392;2023-10-19T07:50:40;13.00;99.90
814;DHT22;389;48.710;9.392;2023-10-19T07:53:07;13.30;99.90
814;DHT22;389;48.710;9.392;2023-10-19T07:55:34;13.30;99.90
814;DHT22;389;48.710;9.392;2023-10-19T07:58:00;13.40;99.90
814;DHT22;389;48.710;9.392;2023-10-19T08:00:26;13.50;99.90
814;DHT22;389;48.710;9.392;2023-10-19T08:02:55;13.50;99.90
814;DHT22;389;48.710;9.392;2023-10-19T08:05:21;13.70;99.90
814;DHT22;389;48.710;9.392;2023-10-19T08:07:47;13.80;99.90
814;DHT22;389;48.710;9.392;2023-10-19T08:10:15;13.90;99.90
814;DHT22;389;48.710;9.392;2023-10-19T08:12:42;14.00;99.90
814;DHT22;389;48.710;9.392;2023-10-19T08:15:09;14.30;99.90
814;DHT22;389;48.710;9.392;2023-10-19T08:17:37;14.40;99.90
814;DHT22;389;48.710;9.392;2023-10-19T08:20:04;14.50;99.90
814;DHT22;389;48.710;9.392;2023-10-19T08:22:34;14.50;99.90
814;DHT22;389;48.710;9.392;2023-10-19T08:24:59;14.60;99.90
814;DHT22;389;48.710;9.392;2023-10-19T08:27:25;14.70;99.90
814;DHT22;389;48.710;9.392;2023-10-19T08:29:51;14.90;99.90
814;DHT22;389;48.710;9.392;2023-10-19T08:32:16;14.90;99.90
814;DHT22;389;48.710;9.392;2023-10-19T08:34:42;15.00;99.90
814;DHT22;389;48.710;9.392;2023-10-19T08:37:07;15.10;99.90
814;DHT22;389;48.710;9.392;2023-10-19T08:39:33;15.10;99.90
814;DHT22;389;48.710;9.392;2023-10-19T08:42:02;15.20;99.90
814;DHT22;389;48.710;9.392;2023-10-19T08:44:29;15.20;99.90
814;DHT22;389;48.710;9.392;2023-10-19T08:46:55;15.30;99.90
814;DHT22;389;48.710;9.392;2023-10-19T08:49:23;15.40;99.90
814;DHT22;389;48.710;9.392;2023-10-19T08:51:49;15.40;99.90
814;DHT22;389;48.710;9.392;2023-10-19T08:54:16;15.50;99.90
814;DHT22;389;48.710;9.392;2023-10-19T08:56:42;15.70;99.90
814;DHT22;389;48.710;9.392;2023-10-19T08:59:09;15.90;99.90
814;DHT22;389;48.710;9.392;2023-10-19T09:01:38;16.00;99.90
814;DHT22;389;48.710;9.392;2023-10-19T09:04:04;16.00;99.90
814;DHT22;389;48.710;9.392;2023-10-19T09:06:34;16.00;99.90
814;DHT22;389;48.710;9.392;2023-10-19T09:09:10;16.00;99.90
814;DHT22;389;48.710;9.392;2023-10-19T09:11:42;16.00;99.90
814;DHT22;389;48.710;9.392;2023-10-19T09:14:08;16.20;99.90
814;DHT22;389;48.710;9.392;2023-10-19T09:16:34;16.30;99.90
814;DHT22;389;48.710;9.392;2023-10-19T09:19:02;16.50;99.90
814;DHT22;389;48.710;9.392;2023-10-19T09:21:29;16.40;99.90
814;DHT22;389;48.710;9.392;2023-10-19T09:23:56;16.50;99.90
814;DHT22;389;48.710;9.392;2023-10-19T09:26:23;16.70;99.90
814;DHT22;389;48.710;9.392;2023-10-19T09:28:50;16.70;99.90
814;DHT22;389;48.710;9.392;2023-10-19T09:31:17;16.90;99.90
814;DHT22;389;48.710;9.392;2023-10-19T09:33:45;16.90;99.90
814;DHT22;389;48.710;9.392;2023-10-19T09:36:11;16.90;99.90
814;DHT22;389;48.710;9.392;2023-10-19T09:38:46;16.80;99.90
814;DHT22;389;48.710;9.392;2023-10-19T09:41:16;16.80;99.90
814;DHT22;389;48.710;9.392;2023-10-19T09:43:44;16.90;99.90
814;DHT22;389;48.710;9.392;2023-10-19T09:46:12;17.00;99.90
814;DHT22;389;48.710;9.392;2023-10-19T09:48:42;17.10;99.90
814;DHT22;389;48.710;9.392;2023-10-19T09:51:11;17.20;99.90
814;DHT22;389;48.710;9.392;2023-10-19T09:56:42;17.40;99.90
814;DHT22;389;48.710;9.392;2023-10-19T09:59:37;17.60;99.90
814;DHT22;389;48.710;9.392;2023-10-19T10:02:16;17.70;99.90
814;DHT22;389;48.710;9.392;2023-10-19T10:04:43;17.80;99.90
814;DHT22;389;48.710;9.392;2023-10-19T10:07:14;17.90;99.90
814;DHT22;389;48.710;9.392;2023-10-19T10:09:42;17.90;99.90
814;DHT22;389;48.710;9.392;2023-10-19T10:12:38;18.10;99.90
814;DHT22;389;48.710;9.392;2023-10-19T10:15:05;18.20;99.90
814;DHT22;389;48.710;9.392;2023-10-19T10:17:34;18.20;99.90
814;DHT22;389;48.710;9.392;2023-10-19T10:20:29;18.30;99.90
814;DHT22;389;48.710;9.392;2023-10-19T10:23:16;18.40;99.90
814;DHT22;389;48.710;9.392;2023-10-19T10:25:45;18.50;99.90
814;DHT22;389;48.710;9.392;2023-10-19T10:28:14;18.60;99.90
814;DHT22;389;48.710;9.392;2023-10-19T10:33:49;18.80;99.90
814;DHT22;389;48.710;9.392;2023-10-19T10:36:17;18.80;99.90
814;DHT22;389;48.710;9.392;2023-10-19T10:38:43;18.90;99.90
814;DHT22;389;48.710;9.392;2023-10-19T10:41:09;19.00;99.90
814;DHT22;389;48.710;9.392;2023-10-19T10:43:48;19.00;99.90
814;DHT22;389;48.710;9.392;2023-10-19T10:46:15;19.20;99.90
814;DHT22;389;48.710;9.392;2023-10-19T10:48:41;19.20;99.90
814;DHT22;389;48.710;9.392;2023-10-19T10:51:17;19.40;99.90
814;DHT22;389;48.710;9.392;2023-10-19T10:53:43;19.50;99.90
814;DHT22;389;48.710;9.392;2023-10-19T10:56:11;19.50;99.90
814;DHT22;389;48.710;9.392;2023-10-19T10:58:37;19.60;99.60
814;DHT22;389;48.710;9.392;2023-10-19T11:01:03;19.70;99.40
814;DHT22;389;48.710;9.392;2023-10-19T11:03:28;19.80;99.30
814;DHT22;389;48.710;9.392;2023-10-19T11:06:02;19.90;99.20
814;DHT22;389;48.710;9.392;2023-10-19T11:08:28;19.90;99.00
814;DHT22;389;48.710;9.392;2023-10-19T11:10:53;20.00;99.10
814;DHT22;389;48.710;9.392;2023-10-19T11:13:23;20.00;99.10
814;DHT22;389;48.710;9.392;2023-10-19T11:15:51;20.10;99.00
814;DHT22;389;48.710;9.392;2023-10-19T11:18:53;20.10;99.10
814;DHT22;389;48.710;9.392;2023-10-19T11:21:19;20.10;99.20
814;DHT22;389;48.710;9.392;2023-10-19T11:23:48;20.10;99.20
814;DHT22;389;48.710;9.392;2023-10-19T11:26:16;20.00;99.30
814;DHT22;389;48.710;9.392;2023-10-19T11:28:42;20.00;99.30
814;DHT22;389;48.710;9.392;2023-10-19T11:31:23;20.00;99.30
814;DHT22;389;48.710;9.392;2023-10-19T11:33:50;19.80;99.30
814;DHT22;389;48.710;9.392;2023-10-19T11:36:17;19.80;99.30
814;DHT22;389;48.710;9.392;2023-10-19T11:38:45;19.60;99.40
814;DHT22;389;48.710;9.392;2023-10-19T11:41:12;19.40;99.50
814;DHT22;389;48.710;9.392;2023-10-19T11:43:39;19.20;99.90
814;DHT22;389;48.710;9.392;2023-10-19T11:46:05;19.10;99.90
814;DHT22;389;48.710;9.392;2023-10-19T11:48:35;19.00;99.90
814;DHT22;389;48.710;9.392;2023-10-19T11:51:05;18.90;99.90
814;DHT22;389;48.710;9.392;2023-10-19T11:53:32;18.80;99.90
814;DHT22;389;48.710;9.392;2023-10-19T11:56:03;18.80;99.90
814;DHT22;389;48.710;9.392;2023-10-19T11:58:33;18.70;99.90
814;DHT22;389;48.710;9.392;2023-10-19T12:01:10;18.70;99.90
814;DHT22;389;48.710;9.392;2023-10-19T12:03:42;18.60;99.90
814;DHT22;389;48.710;9.392;2023-10-19T12:06:11;18.60;99.90
814;DHT22;389;48.710;9.392;2023-10-19T12:08:39;18.70;99.90
814;DHT22;389;48.710;9.392;2023-10-19T12:11:06;18.60;99.90
814;DHT22;389;48.710;9.392;2023-10-19T12:13:41;18.60;99.90
814;DHT22;389;48.710;9.392;2023-10-19T12:16:09;18.70;99.90
814;DHT22;389;48.710;9.392;2023-10-19T12:18:41;18.60;99.90
814;DHT22;389;48.710;9.392;2023-10-19T12:21:07;18.60;99.90
814;DHT22;389;48.710;9.392;2023-10-19T12:23:40;18.50;99.90
814;DHT22;389;48.710;9.392;2023-10-19T12:26:06;18.50;99.90
814;DHT22;389;48.710;9.392;2023-10-19T12:28:37;18.30;99.90
814;DHT22;389;48.710;9.392;2023-10-19T12:31:03;18.30;99.90
814;DHT22;389;48.710;9.392;2023-10-19T12:33:30;18.20;99.90
814;DHT22;389;48.710;9.392;2023-10-19T12:35:56;18.20;99.90
814;DHT22;389;48.710;9.392;2023-10-19T12:38:24;18.20;99.90
814;DHT22;389;48.710;9.392;2023-10-19T12:40:51;18.00;99.90
814;DHT22;389;48.710;9.392;2023-10-19T12:43:18;17.90;99.90
814;DHT22;389;48.710;9.392;2023-10-19T12:45:45;17.80;99.90
814;DHT22;389;48.710;9.392;2023-10-19T12:48:16;17.70;99.90
814;DHT22;389;48.710;9.392;2023-10-19T12:50:42;17.70;99.90
814;DHT22;389;48.710;9.392;2023-10-19T12:53:08;17.50;99.90
814;DHT22;389;48.710;9.392;2023-10-19T12:55:34;17.50;99.90
814;DHT22;389;48.710;9.392;2023-10-19T12:58:00;17.40;99.90
814;DHT22;389;48.710;9.392;2023-10-19T13:00:33;17.40;99.90
814;DHT22;389;48.710;9.392;2023-10-19T13:03:05;17.40;99.90
814;DHT22;389;48.710;9.392;2023-10-19T13:05:37;17.40;99.90
814;DHT22;389;48.710;9.392;2023-10-19T13:08:11;17.30;99.90
814;DHT22;389;48.710;9.392;2023-10-19T13:10:41;17.30;99.90
814;DHT22;389;48.710;9.392;2023-10-19T13:13:09;17.30;99.90
814;DHT22;389;48.710;9.392;2023-10-19T13:15:40;17.40;99.90
814;DHT22;389;48.710;9.392;2023-10-19T13:18:08;17.50;99.90
814;DHT22;389;48.710;9.392;2023-10-19T13:20:39;17.40;99.90
814;DHT22;389;48.710;9.392;2023-10-19T13:23:09;17.40;99.90
814;DHT22;389;48.710;9.392;2023-10-19T13:25:38;17.50;99.90
814;DHT22;389;48.710;9.392;2023-10-19T13:28:08;17.60;99.90
814;DHT22;389;48.710;9.392;2023-10-19T13:30:41;17.70;99.90
814;DHT22;389;48.710;9.392;2023-10-19T13:33:08;17.80;99.90
814;DHT22;389;48.710;9.392;2023-10-19T13:35:38;18.00;99.90
814;DHT22;389;48.710;9.392;2023-10-19T13:38:05;18.20;99.90
814;DHT22;389;48.710;9.392;2023-10-19T13:40:31;18.30;99.90
814;DHT22;389;48.710;9.392;2023-10-19T13:42:58;18.50;99.90
814;DHT22;389;48.710;9.392;2023-10-19T13:45:24;18.50;99.90
814;DHT22;389;48.710;9.392;2023-10-19T13:47:50;18.60;99.90
814;DHT22;389;48.710;9.392;2023-10-19T13:50:21;18.70;99.90
814;DHT22;389;48.710;9.392;2023-10-19T13:52:51;18.70;99.90
814;DHT22;389;48.710;9.392;2023-10-19T13:55:17;18.80;99.90
814;DHT22;389;48.710;9.392;2023-10-19T13:57:45;18.80;99.90
814;DHT22;389;48.710;9.392;2023-10-19T14:00:12;18.70;99.90
814;DHT22;389;48.710;9.392;2023-10-19T14:02:45;18.70;99.90
814;DHT22;389;48.710;9.392;2023-10-19T14:05:11;18.60;99.90
814;DHT22;389;48.710;9.392;2023-10-19T14:07:37;18.60;99.90
814;DHT22;389;48.710;9.392;2023-10-19T14:10:08;18.60;99.90
814;DHT22;389;48.710;9.392;2023-10-19T14:12:37;18.50;99.90
814;DHT22;389;48.710;9.392;2023-10-19T14:15:03;18.40;99.90
814;DHT22;389;48.710;9.392;2023-10-19T14:17:29;18.40;99.90
814;DHT22;389;48.710;9.392;2023-10-19T14:19:55;18.30;99.90
814;DHT22;389;48.710;9.392;2023-10-19T14:22:20;18.30;99.90
814;DHT22;389;48.710;9.392;2023-10-19T14:24:46;18.30;99.90
814;DHT22;389;48.710;9.392;2023-10-19T14:27:12;18.20;99.90
814;DHT22;389;48.710;9.392;2023-10-19T14:29:39;18.20;99.90
814;DHT22;389;48.710;9.392;2023-10-19T14:32:04;18.20;99.90
814;DHT22;389;48.710;9.392;2023-10-19T14:34:30;18.10;99.90
814;DHT22;389;48.710;9.392;2023-10-19T14:36:55;18.10;99.90
814;DHT22;389;48.710;9.392;2023-10-19T14:39:21;18.00;99.90
814;DHT22;389;48.710;9.392;2023-10-19T14:41:47;18.00;99.90
814;DHT22;389;48.710;9.392;2023-10-19T14:44:12;17.90;99.90
814;DHT22;389;48.710;9.392;2023-10-19T14:46:38;17.90;99.90
814;DHT22;389;48.710;9.392;2023-10-19T14:49:04;17.90;99.90
814;DHT22;389;48.710;9.392;2023-10-19T14:51:30;17.90;99.90
814;DHT22;389;48.710;9.392;2023-10-19T14:53:56;17.90;99.90
814;DHT22;389;48.710;9.392;2023-10-19T14:56:21;17.80;99.90
814;DHT22;389;48.710;9.392;2023-10-19T14:58:47;17.90;99.90
814;DHT22;389;48.710;9.392;2023-10-19T15:01:12;17.80;99.90
814;DHT22;389;48.710;9.392;2023-10-19T15:03:42;17.80;99.90
814;DHT22;389;48.710;9.392;2023-10-19T15:06:08;17.80;99.90
814;DHT22;389;48.710;9.392;2023-10-19T15:08:34;17.80;99.90
814;DHT22;389;48.710;9.392;2023-10-19T15:10:59;17.70;99.90
814;DHT22;389;48.710;9.392;2023-10-19T15:13:25;17.70;99.90
814;DHT22;389;48.710;9.392;2023-10-19T15:15:51;17.70;99.90
814;DHT22;389;48.710;9.392;2023-10-19T15:18:17;17.80;99.90
814;DHT22;389;48.710;9.392;2023-10-19T15:20:43;17.80;99.90
814;DHT22;389;48.710;9.392;2023-10-19T15:23:09;17.80;99.90
814;DHT22;389;48.710;9.392;2023-10-19T15:25:38;17.80;99.90
814;DHT22;389;48.710;9.392;2023-10-19T15:28:05;17.80;99.90
814;DHT22;389;48.710;9.392;2023-10-19T15:30:31;17.80;99.90
814;DHT22;389;48.710;9.392;2023-10-19T15:32:56;17.80;99.90
814;DHT22;389;48.710;9.392;2023-10-19T15:35:22;17.90;99.90
814;DHT22;389;48.710;9.392;2023-10-19T15:37:50;17.90;99.90
814;DHT22;389;48.710;9.392;2023-10-19T15:40:19;18.10;99.90
814;DHT22;389;48.710;9.392;2023-10-19T15:42:45;18.00;99.90
814;DHT22;389;48.710;9.392;2023-10-19T15:45:13;18.00;99.90
814;DHT22;389;48.710;9.392;2023-10-19T15:47:39;18.00;99.90
814;DHT22;389;48.710;9.392;2023-10-19T15:50:07;18.00;99.90
814;DHT22;389;48.710;9.392;2023-10-19T15:52:34;18.00;99.90
814;DHT22;389;48.710;9.392;2023-10-19T15:55:00;18.00;99.90
814;DHT22;389;48.710;9.392;2023-10-19T15:57:26;18.00;99.90
814;DHT22;389;48.710;9.392;2023-10-19T15:59:53;17.90;99.90
814;DHT22;389;48.710;9.392;2023-10-19T16:02:20;17.80;99.90
814;DHT22;389;48.710;9.392;2023-10-19T16:04:46;17.70;99.90
814;DHT22;389;48.710;9.392;2023-10-19T16:07:13;17.60;99.90
814;DHT22;389;48.710;9.392;2023-10-19T16:09:40;17.50;99.90
814;DHT22;389;48.710;9.392;2023-10-19T16:12:06;17.50;99.90
814;DHT22;389;48.710;9.392;2023-10-19T16:14:36;17.40;99.90
814;DHT22;389;48.710;9.392;2023-10-19T16:17:04;17.30;99.90
814;DHT22;389;48.710;9.392;2023-10-19T16:19:30;17.30;99.90
814;DHT22;389;48.710;9.392;2023-10-19T16:21:57;17.30;99.90
814;DHT22;389;48.710;9.392;2023-10-19T16:24:23;17.20;99.90
814;DHT22;389;48.710;9.392;2023-10-19T16:26:52;17.20;99.90
814;DHT22;389;48.710;9.392;2023-10-19T16:29:18;17.20;99.90
814;DHT22;389;48.710;9.392;2023-10-19T16:31:46;17.20;99.90
814;DHT22;389;48.710;9.392;2023-10-19T16:34:14;17.20;99.90
814;DHT22;389;48.710;9.392;2023-10-19T16:36:41;17.20;99.90
814;DHT22;389;48.710;9.392;2023-10-19T16:39:07;17.10;99.90
814;DHT22;389;48.710;9.392;2023-10-19T16:41:41;17.10;99.90
814;DHT22;389;48.710;9.392;2023-10-19T16:44:07;17.10;99.90
814;DHT22;389;48.710;9.392;2023-10-19T16:46:33;17.10;99.90
814;DHT22;389;48.710;9.392;2023-10-19T16:49:01;17.10;99.90
814;DHT22;389;48.710;9.392;2023-10-19T16:51:28;17.10;99.90
814;DHT22;389;48.710;9.392;2023-10-19T16:53:54;17.10;99.90